Time;durP1;ratioP1;P1;durP2;ratioP2;P2;SDS_P1;SDS_P2;PMS_P1;PMS_P2;Temp;Humidity;BMP_temperature;BMP_pressure;BME280_temperature;BME280_humidity;BME280_pressure;Samples;Min_cycle;Max_cycle;Signal;HPM_P1;HPM_P2
2023/05/27 08:49:20;;;;;;;14.35;4.38;;;;;;;18.02;34.73;102129.72;2101970;28;20384;-69
2023/05/27 08:50:24;;;;;;;5.78;1.27;;;;;;;18.11;34.07;102143.50;2106778;27;20029;-69
2023/05/27 08:51:27;;;;;;;13.50;4.10;;;;;;;18.17;33.49;102130.63;2103226;28;20044;-69
2023/05/27 08:52:29;;;;;;;12.20;4.07;;;;;;;18.30;30.40;102151.69;2084280;28;20056;-75
2023/05/27 08:53:31;;;;;;;3.78;1.42;;;;;;;22.37;24.34;102146.19;2085526;28;21263;-77
2023/05/27 08:54:38;;;;;;;16.40;4.75;;;;;;;25.98;22.31;102140.44;2095794;28;20048;-76
2023/05/27 08:55:41;;;;;;;6.82;1.75;;;;;;;27.70;20.24;102131.47;2114169;27;20210;-83
2023/05/27 08:56:53;;;;;;;4.00;0.80;;;;;;;28.17;19.94;102130.59;2104148;28;20910;-78
2023/05/27 08:58:00;;;;;;;3.28;1.00;;;;;;;29.60;18.34;102141.72;2081350;28;20107;-77
2023/05/27 08:59:09;;;;;;;2.70;1.02;;;;;;;30.59;16.52;102130.50;2077111;28;20085;-78
2023/05/27 09:00:15;;;;;;;2.63;1.10;;;;;;;29.71;17.78;102126.09;2086851;28;20036;-79
2023/05/27 09:01:24;;;;;;;2.97;1.00;;;;;;;30.08;17.52;102132.97;2101832;28;20027;-80
2023/05/27 09:02:27;;;;;;;2.75;0.90;;;;;;;30.12;17.55;102134.63;2099910;28;20111;-83
2023/05/27 09:03:36;;;;;;;4.10;2.20;;;;;;;29.54;17.84;102127.38;2093136;28;20848;-80
2023/05/27 09:04:43;;;;;;;3.78;1.02;;;;;;;29.51;18.10;102124.56;2102934;28;20107;-83
2023/05/27 09:05:46;;;;;;;2.50;1.20;;;;;;;29.39;17.73;102124.75;2087088;28;20087;-79
2023/05/27 09:06:50;;;;;;;4.60;1.38;;;;;;;28.83;18.65;102126.88;2078622;28;20130;-81
2023/05/27 09:07:56;;;;;;;2.05;0.60;;;;;;;27.57;18.66;102125.22;2084973;28;20036;-81
2023/05/27 09:09:02;;;;;;;3.42;1.15;;;;;;;26.84;20.45;102123.69;2081782;28;20846;-79
2023/05/27 09:10:20;;;;;;;1.48;0.80;;;;;;;26.14;21.27;102129.50;2095877;28;20025;-79
2023/05/27 09:11:36;;;;;;;2.10;0.95;;;;;;;25.59;21.66;102112.38;2084006;28;20056;-80
2023/05/27 09:13:05;;;;;;;2.45;0.73;;;;;;;24.93;21.27;102118.72;2088372;28;20968;-82
2023/05/27 09:14:22;;;;;;;1.75;0.77;;;;;;;24.41;20.20;102110.94;2093769;28;20823;-78
2023/05/27 09:15:26;;;;;;;2.30;0.80;;;;;;;24.42;21.17;102126.31;2086320;28;20043;-82
2023/05/27 09:16:35;;;;;;;2.78;0.80;;;;;;;24.72;21.99;102129.00;2086955;28;20099;-75
2023/05/27 09:17:44;;;;;;;1.55;0.70;;;;;;;24.49;20.59;102123.00;2095197;28;20025;-81
2023/05/27 09:18:46;;;;;;;0.95;0.60;;;;;;;23.58;21.97;102122.50;2095466;28;20128;-80
2023/05/27 09:19:53;;;;;;;4.63;0.80;;;;;;;23.47;21.38;102129.50;2104370;28;20028;-77
2023/05/27 09:20:58;;;;;;;1.48;0.60;;;;;;;23.19;21.95;102129.09;2104061;28;20091;-78
2023/05/27 09:22:02;;;;;;;2.20;0.95;;;;;;;22.85;22.71;102125.22;2097131;28;20037;-76
2023/05/27 09:23:09;;;;;;;2.72;0.90;;;;;;;22.44;21.26;102121.03;2092510;28;20026;-77
2023/05/27 09:24:13;;;;;;;1.58;0.40;;;;;;;22.32;21.43;102120.84;2095160;28;20013;-78
2023/05/27 09:25:16;;;;;;;1.77;0.52;;;;;;;22.24;22.20;102119.72;2087138;28;20034;-78
2023/05/27 09:26:23;;;;;;;1.20;0.60;;;;;;;22.34;21.82;102116.69;2087662;28;20041;-75
2023/05/27 09:27:31;;;;;;;2.08;0.75;;;;;;;22.60;22.88;102115.88;2081261;28;20021;-77
2023/05/27 09:28:43;;;;;;;2.05;0.70;;;;;;;22.95;21.71;102122.22;2086480;28;20759;-75
2023/05/27 09:29:45;;;;;;;0.90;0.40;;;;;;;22.19;23.45;102122.59;2082339;28;20029;-77
2023/05/27 09:30:51;;;;;;;2.75;0.73;;;;;;;22.12;23.51;102127.72;2081124;28;20073;-75
2023/05/27 09:31:57;;;;;;;1.48;0.70;;;;;;;21.94;23.36;102121.38;2082200;28;20083;-75
2023/05/27 09:33:04;;;;;;;1.55;0.70;;;;;;;21.89;24.27;102127.84;2090382;28;20041;-75
2023/05/27 09:34:13;;;;;;;1.67;0.73;;;;;;;22.01;24.38;102123.69;2095528;28;20030;-77
2023/05/27 09:35:17;;;;;;;0.95;0.63;;;;;;;22.04;24.50;102125.78;2086500;28;20042;-76
2023/05/27 09:36:24;;;;;;;2.50;0.80;;;;;;;21.58;26.22;102119.66;2080024;28;20058;-76
2023/05/27 09:37:34;;;;;;;2.05;0.70;;;;;;;21.44;22.86;102114.28;2076047;28;21441;-77
2023/05/27 09:38:37;;;;;;;4.53;0.65;;;;;;;21.42;22.81;102126.66;2093339;28;20099;-75
2023/05/27 09:39:45;;;;;;;1.52;0.75;;;;;;;21.26;23.51;102112.53;2108969;27;20132;-77
2023/05/27 09:40:49;;;;;;;2.63;0.65;;;;;;;21.15;24.59;102111.97;2094588;28;20041;-76
2023/05/27 09:41:53;;;;;;;1.55;0.70;;;;;;;21.15;24.82;102120.19;2087425;28;20041;-76
2023/05/27 09:42:56;;;;;;;1.42;0.70;;;;;;;20.98;25.26;102118.16;2084129;28;20064;-77
2023/05/27 09:44:09;;;;;;;1.67;0.70;;;;;;;21.00;25.24;102101.44;2101202;28;20195;-75
2023/05/27 09:45:18;;;;;;;1.08;0.60;;;;;;;20.78;24.96;102102.25;2096321;28;20756;-75
2023/05/27 09:46:21;;;;;;;3.65;0.80;;;;;;;20.59;26.52;102105.97;2095700;28;20106;-77
2023/05/27 09:47:26;;;;;;;1.20;0.55;;;;;;;20.43;26.10;102115.59;2100858;28;20036;-76
2023/05/27 09:48:32;;;;;;;5.55;0.80;;;;;;;20.72;26.08;102104.31;2086912;28;20049;-77
2023/05/27 09:49:35;;;;;;;1.30;0.70;;;;;;;20.87;25.97;102105.03;2075248;28;20950;-76
2023/05/27 09:50:40;;;;;;;1.92;0.82;;;;;;;20.82;26.98;102114.19;2080038;28;20753;-74
2023/05/27 09:52:08;;;;;;;2.25;0.80;;;;;;;21.10;27.72;102111.31;2090614;28;20462;-76
2023/05/27 09:53:13;;;;;;;0.80;0.63;;;;;;;20.95;25.71;102102.38;2092197;28;20040;-74
2023/05/27 09:54:24;;;;;;;2.80;0.80;;;;;;;20.72;25.90;102114.44;2087310;28;20930;-74
2023/05/27 09:55:28;;;;;;;3.13;0.80;;;;;;;20.64;26.30;102118.69;2086101;28;21465;-74
2023/05/27 09:56:32;;;;;;;2.08;0.75;;;;;;;20.68;27.24;102116.16;2090721;28;20958;-75
2023/05/27 09:57:35;;;;;;;2.15;0.80;;;;;;;20.65;27.09;102109.41;2087650;28;21656;-77
2023/05/27 09:58:37;;;;;;;1.60;0.70;;;;;;;20.70;25.72;102116.66;2088137;28;20030;-75
2023/05/27 09:59:39;;;;;;;2.25;0.90;;;;;;;20.60;27.02;102115.78;2101326;28;20996;-76
2023/05/27 10:00:46;;;;;;;1.30;0.57;;;;;;;20.83;26.46;102122.06;2087755;28;20041;-73
2023/05/27 10:01:52;;;;;;;2.90;0.75;;;;;;;20.94;26.89;102117.16;2085365;28;20069;-74
2023/05/27 10:03:00;;;;;;;3.00;0.75;;;;;;;20.79;27.04;102117.53;2071443;28;20025;-75
2023/05/27 10:04:05;;;;;;;3.25;0.70;;;;;;;20.50;25.57;102118.72;2070977;28;20058;-76
2023/05/27 10:05:13;;;;;;;1.15;0.60;;;;;;;20.56;26.56;102128.44;2086847;28;20134;-76
2023/05/27 10:06:17;;;;;;;1.00;0.60;;;;;;;20.71;25.39;102146.44;2088922;28;20065;-76
2023/05/27 10:07:23;;;;;;;1.48;0.60;;;;;;;20.38;25.11;102121.97;2082560;28;20030;-74
2023/05/27 10:08:28;;;;;;;1.45;0.63;;;;;;;20.32;25.25;102128.66;2057417;28;20041;-75
2023/05/27 10:09:31;;;;;;;1.33;0.70;;;;;;;20.25;25.19;102127.47;2062550;28;20140;-76
2023/05/27 10:10:33;;;;;;;1.17;0.50;;;;;;;20.10;25.41;102115.75;2087399;28;20060;-75
2023/05/27 10:11:38;;;;;;;0.80;0.70;;;;;;;20.19;26.10;102117.78;2088179;28;20814;-76
2023/05/27 10:12:44;;;;;;;1.45;0.73;;;;;;;20.43;26.15;102126.53;2077681;28;20156;-80
2023/05/27 10:13:49;;;;;;;3.05;0.85;;;;;;;20.19;27.16;102118.56;2089998;28;21373;-76
2023/05/27 10:14:58;;;;;;;4.70;0.75;;;;;;;20.12;28.00;102118.19;2090972;28;20060;-79
2023/05/27 10:16:01;;;;;;;3.15;0.90;;;;;;;20.30;28.32;102117.25;2083684;28;20164;-82
2023/05/27 10:17:07;;;;;;;2.15;0.88;;;;;;;20.77;27.56;102114.28;2066812;28;20152;-80
2023/05/27 10:18:09;;;;;;;5.15;0.90;;;;;;;-145.81;100.00;67990.72;2094685;28;20032;-73
2023/05/27 10:19:12;;;;;;;2.15;0.60;;;;;;;17.56;31.05;102116.59;2086079;28;20858;-67
2023/05/27 10:20:39;;;;;;;1.95;0.75;;;;;;;16.31;31.59;102123.47;2088609;28;20077;-66
2023/05/27 10:21:45;;;;;;;2.72;0.60;;;;;;;16.01;32.36;102114.34;2091244;28;20107;-65
2023/05/27 10:22:48;;;;;;;3.42;0.70;;;;;;;16.31;31.69;102118.84;2093935;28;20083;-66
2023/05/27 10:24:00;;;;;;;1.30;0.60;;;;;;;16.59;29.59;102122.78;2086717;28;20030;-65
2023/05/27 10:25:13;;;;;;;3.08;0.43;;;;;;;16.63;30.30;102125.72;2067130;28;20869;-65
2023/05/27 10:26:17;;;;;;;4.25;0.70;;;;;;;16.69;29.57;102113.75;2085042;28;20030;-67
2023/05/27 10:27:19;;;;;;;1.80;0.50;;;;;;;16.77;27.96;102126.78;2074624;28;20029;-66
2023/05/27 10:28:43;;;;;;;1.02;0.57;;;;;;;16.84;27.72;102116.41;2087982;28;20033;-66
2023/05/27 10:29:45;;;;;;;0.82;0.40;;;;;;;16.93;27.42;102108.47;2076155;28;20042;-66
2023/05/27 10:30:47;;;;;;;2.80;0.63;;;;;;;16.92;28.10;102123.13;2065161;28;20456;-68
2023/05/27 10:31:58;;;;;;;0.82;0.60;;;;;;;16.79;28.74;102119.13;2070711;28;20987;-70
2023/05/27 10:33:00;;;;;;;1.73;0.52;;;;;;;16.78;30.34;102114.81;2071778;28;20054;-70
2023/05/27 10:34:04;;;;;;;2.80;0.60;;;;;;;16.71;29.79;102133.31;2079438;28;20052;-71
2023/05/27 10:35:10;;;;;;;1.00;0.60;;;;;;;16.63;28.88;102118.41;2082337;28;20868;-71
2023/05/27 10:36:17;;;;;;;1.33;0.55;;;;;;;16.70;29.04;102115.38;2073644;28;20027;-73
2023/05/27 10:37:21;;;;;;;1.13;0.60;;;;;;;16.66;28.37;102114.31;2079120;28;20038;-69
2023/05/27 10:38:23;;;;;;;4.10;0.60;;;;;;;16.72;28.85;102113.19;2091938;28;20028;-70
2023/05/27 10:39:25;;;;;;;3.25;0.55;;;;;;;16.69;28.33;102120.00;2091042;28;20021;-66
2023/05/27 10:40:28;;;;;;;1.58;0.80;;;;;;;16.62;30.19;102114.06;2107001;28;20099;-70
2023/05/27 10:41:41;;;;;;;1.30;0.60;;;;;;;16.58;29.04;102112.19;2089057;28;21256;-68
2023/05/27 10:42:47;;;;;;;1.40;0.90;;;;;;;16.67;30.25;102111.31;2084552;28;21556;-69
2023/05/27 10:44:03;;;;;;;1.05;0.68;;;;;;;16.67;29.74;102110.50;2085993;28;20151;-69
2023/05/27 10:45:09;;;;;;;1.83;0.43;;;;;;;16.66;27.46;102115.13;2089190;28;20033;-69
2023/05/27 10:46:13;;;;;;;3.25;0.60;;;;;;;16.62;28.96;102114.06;2080392;28;20029;-69
2023/05/27 10:47:15;;;;;;;1.73;0.57;;;;;;;16.35;28.71;102109.06;2072842;28;20072;-68
2023/05/27 10:48:20;;;;;;;2.55;0.50;;;;;;;16.25;29.59;102105.59;2079811;28;20033;-68
2023/05/27 10:49:25;;;;;;;3.30;0.50;;;;;;;16.36;29.04;102109.84;2097971;28;20076;-66
2023/05/27 10:50:35;;;;;;;0.80;0.30;;;;;;;16.31;28.97;102101.75;2087524;28;20077;-71
2023/05/27 10:51:37;;;;;;;3.65;0.70;;;;;;;16.24;28.74;102106.69;2072220;28;20864;-69
2023/05/27 10:52:40;;;;;;;1.33;0.47;;;;;;;16.08;29.17;102098.59;2071486;28;20034;-71
2023/05/27 10:53:42;;;;;;;4.22;0.65;;;;;;;16.16;30.70;102097.22;2078771;28;20026;-72
2023/05/27 10:54:48;;;;;;;2.97;0.65;;;;;;;16.20;28.95;102101.81;2089371;28;20048;-70
2023/05/27 10:55:51;;;;;;;1.75;0.45;;;;;;;16.18;28.61;102086.91;2087743;28;20036;-70
2023/05/27 10:56:52;;;;;;;1.02;0.70;;;;;;;16.29;29.10;102085.75;2088570;28;20069;-70
2023/05/27 10:58:02;;;;;;;1.23;0.75;;;;;;;16.41;29.52;102097.06;2089208;28;20080;-70
2023/05/27 10:59:22;;;;;;;2.25;0.65;;;;;;;16.42;31.01;102096.00;2087132;28;20299;-68
2023/05/27 11:00:31;;;;;;;4.20;0.60;;;;;;;16.51;31.47;102079.91;2079779;28;20030;-69
2023/05/27 11:01:39;;;;;;;1.55;0.60;;;;;;;16.67;29.89;102083.34;2070181;28;20112;-69
2023/05/27 11:02:41;;;;;;;2.05;0.52;;;;;;;16.71;29.04;102087.13;2088970;28;20123;-68
2023/05/27 11:03:49;;;;;;;1.30;0.30;;;;;;;16.52;27.48;102091.56;2087933;28;20033;-71
2023/05/27 11:05:11;;;;;;;1.20;0.60;;;;;;;16.38;30.93;102089.50;2078558;28;20026;-69
2023/05/27 11:06:15;;;;;;;1.20;0.70;;;;;;;16.35;29.21;102091.97;2076358;28;20038;-70
2023/05/27 11:07:22;;;;;;;20.25;1.40;;;;;;;16.31;31.80;102086.28;2087665;28;20861;-70
2023/05/27 11:08:27;;;;;;;4.35;1.27;;;;;;;16.30;32.28;102087.38;2072152;28;20954;-66
2023/05/27 11:09:29;;;;;;;1.90;0.68;;;;;;;16.29;32.16;102091.16;2073563;28;20029;-71
2023/05/27 11:10:35;;;;;;;1.13;0.55;;;;;;;16.27;31.76;102090.66;2071832;28;20132;-68
2023/05/27 11:11:38;;;;;;;4.82;0.90;;;;;;;16.31;33.38;102082.75;2079222;28;20037;-66
2023/05/27 11:12:45;;;;;;;1.42;0.68;;;;;;;16.29;32.94;102087.66;2075592;28;20025;-67
2023/05/27 11:13:47;;;;;;;1.65;0.60;;;;;;;16.31;32.04;102086.28;2082457;28;20017;-68
2023/05/27 11:14:55;;;;;;;6.32;0.70;;;;;;;16.32;33.24;102087.91;2075886;28;20481;-65
2023/05/27 11:15:57;;;;;;;0.98;0.65;;;;;;;16.35;33.27;102092.75;2086988;28;20025;-70
2023/05/27 11:16:58;;;;;;;3.85;0.63;;;;;;;16.38;32.35;102091.41;2088925;28;20057;-68
2023/05/27 11:18:03;;;;;;;3.00;0.47;;;;;;;16.51;32.76;102100.81;2079723;28;20113;-67
2023/05/27 11:19:05;;;;;;;0.80;0.50;;;;;;;16.56;31.91;102089.94;2089185;28;20033;-67
2023/05/27 11:20:10;;;;;;;1.27;0.40;;;;;;;16.56;31.05;102092.66;2095889;28;20044;-67
2023/05/27 11:21:15;;;;;;;5.07;0.65;;;;;;;16.52;29.61;102099.72;2080282;28;20029;-68
2023/05/27 11:22:19;;;;;;;0.98;0.50;;;;;;;16.45;29.63;102089.97;2086284;28;20025;-67
2023/05/27 11:23:21;;;;;;;1.02;0.40;;;;;;;16.40;30.32;102092.75;2094219;28;20029;-67
2023/05/27 11:24:31;;;;;;;3.90;0.60;;;;;;;16.44;29.00;102084.84;1908813;28;10001491;-67
2023/05/27 11:25:43;;;;;;;2.38;0.60;;;;;;;16.36;31.30;102096.28;1538394;28;10011177;-69
2023/05/27 11:26:46;;;;;;;0.75;0.47;;;;;;;16.29;29.77;102087.66;2063630;28;20141;-66
2023/05/27 11:27:49;;;;;;;0.95;0.50;;;;;;;16.22;29.08;102086.03;2063752;28;20128;-65
2023/05/27 11:28:54;;;;;;;2.33;0.45;;;;;;;16.14;30.25;102080.38;2047040;28;20039;-66
2023/05/27 11:29:56;;;;;;;1.30;0.60;;;;;;;16.17;28.61;102083.38;2040897;28;20034;-67
2023/05/27 11:31:06;;;;;;;3.88;0.70;;;;;;;16.15;32.00;102084.75;2054867;28;20031;-66
2023/05/27 11:32:11;;;;;;;0.63;0.60;;;;;;;16.15;32.22;102088.25;2057863;28;20190;-66
2023/05/27 11:33:12;;;;;;;0.60;0.50;;;;;;;16.29;31.14;102084.94;2063027;28;20034;-67
2023/05/27 11:34:20;;;;;;;1.13;0.52;;;;;;;16.35;30.94;102072.97;2055137;28;20078;-67
2023/05/27 11:35:33;;;;;;;3.13;0.68;;;;;;;16.32;31.37;102074.31;2056245;28;20050;-68
2023/05/27 11:36:39;;;;;;;3.53;0.50;;;;;;;16.09;33.08;102088.56;2056352;28;20126;-67
2023/05/27 11:37:41;;;;;;;2.17;0.50;;;;;;;16.10;33.63;102082.03;2058245;28;20023;-68
2023/05/27 11:38:47;;;;;;;1.30;0.40;;;;;;;16.20;33.23;102071.13;2063351;28;20027;-70
2023/05/27 11:39:54;;;;;;;3.88;0.60;;;;;;;16.16;32.22;102067.34;2055773;28;20039;-71
2023/05/27 11:41:06;;;;;;;4.35;0.50;;;;;;;16.07;32.88;102075.25;2064893;28;20101;-67
2023/05/27 11:42:11;;;;;;;1.40;0.57;;;;;;;16.21;33.41;102081.72;2062196;28;20061;-68
2023/05/27 11:43:18;;;;;;;1.25;0.73;;;;;;;16.15;33.39;102099.13;2055310;28;20802;-67
2023/05/27 11:44:22;;;;;;;1.48;0.43;;;;;;;16.07;32.90;102077.16;2063872;28;20090;-67
2023/05/27 11:45:26;;;;;;;0.55;0.45;;;;;;;15.96;32.01;102073.69;2055265;28;20027;-67
2023/05/27 11:47:00;;;;;;;4.75;0.60;;;;;;;16.11;31.86;102064.66;2055947;28;20039;-67
2023/05/27 11:48:05;;;;;;;5.10;0.82;;;;;;;16.10;32.79;102057.63;2033991;28;20040;-66
2023/05/27 11:49:10;;;;;;;4.57;0.55;;;;;;;16.19;32.60;102072.22;2031771;28;20037;-68
2023/05/27 11:50:15;;;;;;;0.98;0.50;;;;;;;16.30;32.66;102062.13;2064319;28;20149;-68
2023/05/27 11:51:31;;;;;;;2.50;0.60;;;;;;;16.17;33.70;102074.41;2062435;28;20544;-67
2023/05/27 11:52:36;;;;;;;2.00;0.70;;;;;;;16.15;35.09;102071.97;2063786;28;21029;-68
2023/05/27 11:53:45;;;;;;;1.17;0.73;;;;;;;16.11;34.59;102064.66;2063320;28;20212;-68
2023/05/27 11:54:51;;;;;;;4.22;1.00;;;;;;;16.11;34.24;102075.50;2064081;28;20027;-69
2023/05/27 11:55:53;;;;;;;2.83;0.50;;;;;;;16.08;32.67;102059.78;2060363;28;20039;-71
2023/05/27 11:56:58;;;;;;;3.20;0.77;;;;;;;16.03;31.98;102073.41;2054942;28;20039;-71
2023/05/27 11:58:00;;;;;;;0.70;0.40;;;;;;;16.04;32.90;102059.53;2060426;28;20931;-69
2023/05/27 11:59:02;;;;;;;2.83;0.50;;;;;;;16.09;32.24;102062.25;2051016;28;20039;-69
2023/05/27 12:00:11;;;;;;;1.58;0.63;;;;;;;16.03;30.84;102068.78;2049063;28;20869;-68
2023/05/27 12:01:19;;;;;;;3.45;0.68;;;;;;;15.99;31.20;102052.25;2064944;28;20161;-68
2023/05/27 12:02:28;;;;;;;2.67;0.40;;;;;;;16.08;32.13;102051.66;2061989;28;20027;-65
2023/05/27 12:03:31;;;;;;;21.40;0.93;;;;;;;16.15;31.47;102054.91;2055375;28;20027;-67
2023/05/27 12:04:32;;;;;;;2.63;0.50;;;;;;;16.18;30.80;102048.91;2062825;28;20033;-67
2023/05/27 12:05:35;;;;;;;5.25;0.60;;;;;;;16.12;32.34;102050.03;2063442;28;20018;-68
2023/05/27 12:06:45;;;;;;;1.13;0.57;;;;;;;16.18;32.43;102055.13;2064078;28;20144;-68
2023/05/27 12:07:50;;;;;;;2.67;0.95;;;;;;;16.24;32.46;102052.41;2071341;28;20034;-67
2023/05/27 12:08:52;;;;;;;1.88;1.00;;;;;;;16.31;32.48;102064.56;2063078;28;20038;-66
2023/05/27 12:09:54;;;;;;;1.38;0.50;;;;;;;16.39;31.17;102049.56;2056072;28;21429;-66
2023/05/27 12:10:56;;;;;;;2.17;0.50;;;;;;;16.35;31.71;102038.47;2071630;28;21414;-67
2023/05/27 12:11:58;;;;;;;2.10;0.93;;;;;;;16.47;32.53;102049.00;2063410;28;20124;-67
2023/05/27 12:13:23;;;;;;;4.88;0.60;;;;;;;16.42;33.75;102047.13;2064015;28;20038;-67
2023/05/27 12:14:25;;;;;;;4.93;1.05;;;;;;;16.45;32.57;102054.69;2059672;28;20115;-68
2023/05/27 12:15:27;;;;;;;1.30;0.50;;;;;;;16.40;31.43;102046.59;2063408;28;20043;-67
2023/05/27 12:16:29;;;;;;;2.95;0.52;;;;;;;16.44;32.52;102053.06;2063679;28;20061;-67
2023/05/27 12:17:31;;;;;;;3.03;0.63;;;;;;;16.49;31.03;102045.97;2063331;28;20880;-67
2023/05/27 12:18:33;;;;;;;4.65;0.70;;;;;;;16.48;32.55;102053.31;2054950;28;20040;-67
2023/05/27 12:19:38;;;;;;;0.55;0.45;;;;;;;16.42;30.10;102052.56;2071786;28;20031;-68
2023/05/27 12:20:42;;;;;;;1.10;0.50;;;;;;;16.33;32.00;102050.69;2063756;28;20039;-68
2023/05/27 12:21:50;;;;;;;5.05;0.73;;;;;;;16.32;34.31;102052.59;2050794;28;20031;-70
2023/05/27 12:22:54;;;;;;;7.38;0.75;;;;;;;16.13;33.47;102047.00;2051618;28;20839;-68
2023/05/27 12:24:04;;;;;;;1.92;0.82;;;;;;;15.96;35.38;102047.38;2056709;28;20147;-70
2023/05/27 12:25:10;;;;;;;3.22;1.15;;;;;;;16.03;34.00;102043.56;2062986;28;20208;-69
2023/05/27 12:26:14;;;;;;;5.30;1.38;;;;;;;16.04;33.60;102037.03;2062524;28;20789;-68
2023/05/27 12:27:17;;;;;;;1.73;1.02;;;;;;;16.16;32.87;102040.22;2071510;28;20830;-67
2023/05/27 12:28:23;;;;;;;4.13;1.00;;;;;;;16.22;30.75;102042.63;2069832;28;20031;-68
2023/05/27 12:29:30;;;;;;;1.10;0.60;;;;;;;16.25;31.40;102033.13;2065377;28;20046;-66
2023/05/27 12:30:37;;;;;;;1.73;0.90;;;;;;;16.13;30.96;102041.59;2067537;28;20844;-66
2023/05/27 12:31:39;;;;;;;1.10;0.70;;;;;;;16.04;30.03;102031.59;2047359;28;20032;-66
2023/05/27 12:32:43;;;;;;;1.65;0.50;;;;;;;16.11;31.28;102051.09;2055912;28;20044;-66
2023/05/27 12:33:48;;;;;;;3.35;0.43;;;;;;;16.07;28.77;102047.31;2063273;28;20911;-67
2023/05/27 12:34:55;;;;;;;1.48;0.50;;;;;;;16.03;29.95;102044.34;2053211;28;20851;-67
2023/05/27 12:36:05;;;;;;;0.50;0.50;;;;;;;15.96;29.79;102050.09;2047437;28;20970;-67
2023/05/27 12:37:17;;;;;;;3.25;0.43;;;;;;;15.94;31.13;102027.03;2047436;28;20118;-68
2023/05/27 12:38:23;;;;;;;1.05;0.60;;;;;;;16.09;31.79;102028.88;2064305;28;20023;-68
2023/05/27 12:39:25;;;;;;;1.10;0.80;;;;;;;16.16;31.83;102042.94;2061245;28;20146;-68
2023/05/27 12:40:27;;;;;;;2.65;0.60;;;;;;;16.02;30.49;102029.19;2070859;28;20046;-67
2023/05/27 12:41:29;;;;;;;0.60;0.47;;;;;;;16.01;31.01;102024.03;2070428;28;20073;-67
2023/05/27 12:42:32;;;;;;;2.80;0.43;;;;;;;16.04;31.38;102034.31;2054666;28;20046;-67
2023/05/27 12:43:35;;;;;;;2.92;0.88;;;;;;;16.10;30.52;102030.50;2054396;28;20056;-66
2023/05/27 12:44:49;;;;;;;0.50;0.40;;;;;;;16.20;30.03;102030.41;2050892;28;20119;-67
2023/05/27 12:45:52;;;;;;;0.60;0.40;;;;;;;16.19;30.69;102021.47;2053633;28;20153;-67
2023/05/27 12:46:53;;;;;;;1.50;0.43;;;;;;;16.18;30.78;102036.16;2054847;28;22084;-67
2023/05/27 12:47:55;;;;;;;1.13;0.70;;;;;;;16.22;30.66;102022.81;2062500;28;20069;-69
2023/05/27 12:48:56;;;;;;;3.55;1.15;;;;;;;16.19;30.42;102021.47;2045821;28;20047;-67
2023/05/27 12:49:59;;;;;;;1.58;0.50;;;;;;;16.21;30.30;102021.22;2046765;28;20172;-67
2023/05/27 12:51:01;;;;;;;3.28;0.45;;;;;;;16.14;29.84;102018.81;2054144;28;20789;-67
2023/05/27 12:52:06;;;;;;;3.05;0.68;;;;;;;16.14;30.85;102020.69;2062228;28;20913;-66
2023/05/27 12:53:08;;;;;;;1.65;0.45;;;;;;;16.19;31.73;102035.03;2046673;28;20150;-67
2023/05/27 12:54:11;;;;;;;1.90;0.80;;;;;;;16.08;31.66;102027.22;2036073;28;20048;-67
2023/05/27 12:55:17;;;;;;;1.70;0.70;;;;;;;15.94;32.95;102033.28;2055676;28;20031;-66
2023/05/27 12:56:18;;;;;;;1.02;0.88;;;;;;;15.81;31.22;102039.31;2046536;28;20082;-67
2023/05/27 12:57:23;;;;;;;2.45;0.70;;;;;;;15.82;29.63;102051.75;2046143;28;21211;-66
2023/05/27 12:58:24;;;;;;;0.65;0.40;;;;;;;15.74;30.53;102049.66;2046480;28;20126;-67
2023/05/27 12:59:26;;;;;;;1.48;0.50;;;;;;;15.64;31.66;102038.81;2058754;28;20145;-67
2023/05/27 13:00:31;;;;;;;1.92;0.50;;;;;;;15.68;29.63;102031.78;2069569;28;21334;-67
2023/05/27 13:01:45;;;;;;;1.27;0.50;;;;;;;15.78;30.88;102018.16;2047641;28;20044;-66
2023/05/27 13:02:56;;;;;;;4.03;0.50;;;;;;;15.87;30.31;102030.06;2043112;28;20091;-67
2023/05/27 13:04:04;;;;;;;1.08;0.40;;;;;;;15.92;29.96;102035.47;2044858;28;21291;-67
2023/05/27 13:05:09;;;;;;;0.70;0.30;;;;;;;15.92;30.41;102030.03;2062848;28;20843;-67
2023/05/27 13:06:14;;;;;;;3.42;0.60;;;;;;;15.96;31.42;102035.72;2053400;28;20176;-68
2023/05/27 13:07:25;;;;;;;3.17;0.50;;;;;;;16.01;32.25;102015.88;2055882;28;20046;-68
2023/05/27 13:08:32;;;;;;;1.23;0.40;;;;;;;16.08;32.38;102013.66;2061776;28;20039;-69
2023/05/27 13:09:38;;;;;;;1.60;0.57;;;;;;;16.14;33.25;102016.09;2054636;28;20024;-67
2023/05/27 13:10:41;;;;;;;1.55;0.80;;;;;;;16.22;31.69;102017.41;2053774;28;20019;-66
2023/05/27 13:11:54;;;;;;;0.77;0.50;;;;;;;16.20;30.35;102025.00;2055292;28;20023;-67
2023/05/27 13:13:07;;;;;;;2.15;0.60;;;;;;;16.12;31.02;102033.75;2063424;28;20038;-68
2023/05/27 13:14:14;;;;;;;2.85;1.05;;;;;;;16.11;30.18;102007.69;2051193;28;20043;-69
2023/05/27 13:15:16;;;;;;;3.65;0.80;;;;;;;16.03;31.18;102013.72;2051897;28;20039;-68
2023/05/27 13:16:19;;;;;;;4.05;0.88;;;;;;;16.03;30.00;102025.38;2054768;28;20074;-69
2023/05/27 13:17:24;;;;;;;4.07;0.50;;;;;;;15.97;28.71;102016.44;2055475;28;20035;-69
2023/05/27 13:18:25;;;;;;;4.00;0.70;;;;;;;15.98;29.23;102028.94;2063795;28;20210;-70
2023/05/27 13:19:30;;;;;;;0.82;0.50;;;;;;;15.94;30.30;102027.84;2058743;28;20986;-68
2023/05/27 13:20:31;;;;;;;1.20;0.40;;;;;;;15.93;28.79;102012.66;2054544;28;20969;-68
2023/05/27 13:21:33;;;;;;;0.68;0.30;;;;;;;15.94;29.77;102000.72;2054632;28;20157;-69
2023/05/27 13:22:36;;;;;;;1.40;0.60;;;;;;;16.06;30.85;102013.16;2066816;28;20141;-68
2023/05/27 13:23:41;;;;;;;3.55;0.50;;;;;;;16.11;31.12;102010.41;2062717;28;20080;-69
2023/05/27 13:24:43;;;;;;;1.42;0.50;;;;;;;16.15;31.58;102006.84;2063112;28;20777;-68
2023/05/27 13:25:44;;;;;;;0.90;0.55;;;;;;;16.21;32.08;102005.72;2062982;28;20049;-69
2023/05/27 13:26:48;;;;;;;1.25;0.50;;;;;;;16.12;30.42;102006.59;2063236;28;20158;-68
2023/05/27 13:27:53;;;;;;;2.70;0.57;;;;;;;16.06;29.37;102003.09;2061335;28;20035;-75
2023/05/27 13:28:57;;;;;;;2.35;0.60;;;;;;;16.05;29.64;102006.13;2055413;28;20035;-72
2023/05/27 13:29:58;;;;;;;4.60;1.00;;;;;;;16.10;30.02;102003.34;2064119;28;20849;-69
2023/05/27 13:31:06;;;;;;;1.25;0.73;;;;;;;16.24;33.02;102001.66;2060451;28;20043;-68
2023/05/27 13:32:08;;;;;;;3.90;0.63;;;;;;;16.15;29.65;101997.91;2049236;28;20028;-70
2023/05/27 13:33:13;;;;;;;3.03;0.73;;;;;;;15.89;28.93;101998.06;2048230;28;20920;-71
2023/05/27 13:34:14;;;;;;;3.78;0.60;;;;;;;15.87;30.90;102008.34;2060210;28;20765;-72
2023/05/27 13:35:19;;;;;;;2.90;1.02;;;;;;;15.83;31.80;102004.59;2056739;28;20074;-76
2023/05/27 13:36:21;;;;;;;0.45;0.38;;;;;;;15.90;32.06;102013.22;2073076;28;20387;-69
2023/05/27 13:37:22;;;;;;;3.53;0.40;;;;;;;15.82;31.99;101992.09;2057163;28;20131;-68
2023/05/27 13:38:24;;;;;;;1.15;0.40;;;;;;;15.84;31.96;101999.97;2065325;28;20078;-69
2023/05/27 13:39:25;;;;;;;1.00;0.50;;;;;;;15.87;31.35;101994.81;2065169;28;20153;-67
2023/05/27 13:40:30;;;;;;;2.53;0.70;;;;;;;15.81;30.90;101997.81;2042108;28;20930;-70
2023/05/27 13:41:32;;;;;;;2.38;0.50;;;;;;;15.82;31.73;101999.44;2047568;28;20139;-70
2023/05/27 13:42:37;;;;;;;0.85;0.57;;;;;;;15.92;31.35;101997.50;2059915;28;20038;-67
2023/05/27 13:43:41;;;;;;;2.05;1.15;;;;;;;16.01;28.64;102005.84;2057610;28;20787;-68
2023/05/27 13:44:43;;;;;;;0.90;0.60;;;;;;;15.92;31.56;101989.34;2078260;28;20034;-68
2023/05/27 13:45:45;;;;;;;1.17;0.40;;;;;;;15.85;29.98;101996.97;2057141;28;20094;-67
2023/05/27 13:46:47;;;;;;;1.35;0.50;;;;;;;15.86;30.29;102006.75;2058048;28;20114;-68
2023/05/27 13:47:51;;;;;;;1.67;0.40;;;;;;;15.74;29.41;101984.56;2049106;28;20050;-68
2023/05/27 13:48:55;;;;;;;3.20;0.43;;;;;;;15.73;29.58;101993.78;2057716;28;20897;-68
2023/05/27 13:49:57;;;;;;;0.73;0.40;;;;;;;15.77;31.84;101994.84;2073163;28;20073;-69
2023/05/27 13:50:59;;;;;;;1.27;0.50;;;;;;;15.83;31.62;101982.91;2056857;28;20164;-67
2023/05/27 13:52:04;;;;;;;0.65;0.40;;;;;;;15.84;32.12;101989.94;2065555;28;20042;-68
2023/05/27 13:53:08;;;;;;;2.03;0.70;;;;;;;15.89;32.08;101981.78;2064757;28;20038;-69
2023/05/27 13:54:09;;;;;;;1.35;0.40;;;;;;;15.77;32.70;101980.50;2057239;28;20946;-68